Presov, Slovakia

4:07 PM CEST on June 27, 2017 (GMT +0200)
CETERA Meteo | | Change Station

Elev 1237 ft 48.99 °N, 21.31 °E | Updated 14 seconds ago

Partly Cloudy
Partly Cloudy
82.7 °F
Feels Like 85 °F
N
6.0
Wind Variable Wind from South
Gusts 11.0 mph

Today
High -- | Low -- °F
--% Chance of Precip.
Yesterday
High -- | Low -- °F
Precip. -- in
Pressure 29.89 in
Visibility -9999.0 miles
Clouds
Heat Index 85 °F
Dew Point 65 °F
Humidity 56%
Rainfall 0.00 in
Snow Depth Not available.
4:32 AM 8:43 PM
Waxing Crescent, 16% visible
METAR LZKZ 271400Z 19009KT 140V220 CAVOK 29/17 Q1012 NOSIG
Pressure 29.89 in
Visibility -9999.0 miles
Clouds
Heat Index 85 °F
Dew Point 65 °F
Humidity 56%
Rainfall 0.00 in
Snow Depth Not available.
4:32 AM 8:43 PM
Waxing Crescent, 16% visible
METAR LZKZ 271400Z 19009KT 140V220 CAVOK 29/17 Q1012 NOSIG

Get Severe Weather Alerts

Thanks for signing up!

Be on the lookout for a verification email in your inbox.

You'll start receiving the daily forecast at 6 AM.

×

10-Day Weather Forecast

×

Almanac

Astronomy

Jun. 27, 2017 Rise Set
Actual Time
Civil Twilight
Nautical Twilight
Astronomical Twilight
Moon
Length of Visible Light
Length of Day
Tomorrow will be .
, % of the Moon is Illuminated

Today's Extremes

Country Highs Country Lows

Community

WunderPhotos

Category 6

Welcome to Category 6. This is the collective home for Weather Underground's featured writeups by Dr. Jeff Masters (right), Bob Henson (left), Chris Burt, and other regular contributors.

Nearby

Air Quality

  Air Quality AQ Index Pollutant
Not available.

Snow Depth

Station Depth Elevation

Earthquake Activity

City Distance Mag. Time & Date
Minimum magnitude displayed is 2.5.

Coastal Water Temperatures

Place Temperature

Stations

Nearby Weather Stations

Station Location Temp. Windchill Dew Point Humidity Wind Precip. Elev Updated Type